Fantasia — ICJY — position and weather

sailwx.info

Track history (hours):
 
Tides and Currents Weather Stations Pressure Air Temp Water Temp Dewpoint Dewpoint Depression Visibility Wind Speed Wind Dir Waves Ship Positions

Fantasia

Last reported at 2016-Sep-23 15:18 UTC. Time now 2016-Sep-26 10:29 UTC.
Position N 49°01' W 005°45'.

Length 183 m; draft 9.7 m.

Type: Ship (hazmat cat B). MMSI: 247279600.

Date/timePositionNaut miles runAvg speedWind from/ knotsBaromVisibWave heightAir tempDewpointWater temp
2016-Sep-23 15:18N 49°01' W 005°45'10912.5
2016-Sep-23 06:33N 49°58' W 003°21'2914.4
2016-Sep-23 04:34N 50°03' W 002°37'9411.7
2016-Sep-22 20:33N 50°28' W 000°16'9912.4
2016-Sep-22 12:33N 51°23' E 001°55'18012.6
2016-Sep-21 22:19N 53°49' E 004°48'3612.6
2016-Sep-21 19:30N 54°22' E 005°10'28010.8
2016-Sep-20 17:33N 57°38' E 011°07'3411.2
2016-Sep-20 14:33N 57°09' E 011°39'1313.2
2016-Sep-20 13:33N 56°56' E 011°47'5410.6
2016-Sep-20 08:31N 56°08' E 011°06'6811.4
2016-Sep-20 02:33N 54°60' E 011°01'30 9.9
2016-Sep-19 23:33N 54°33' E 011°23'4010.1
2016-Sep-19 19:33N 54°42' E 012°31'1412.8
2016-Sep-19 18:26N 54°49' E 012°53'2513.0
2016-Sep-19 16:33N 54°58' E 013°33'2512.5
2016-Sep-19 14:33N 55°09' E 014°11'1312.8
2016-Sep-19 13:33N 55°19' E 014°25'1312.8
2016-Sep-19 12:33N 55°28' E 014°41'1313.0
2016-Sep-19 11:33N 55°35' E 015°01'2713.0
2016-Sep-19 09:30N 55°43' E 015°46'2613.4
2016-Sep-19 07:33N 55°49' E 016°31'41012.4
2016-Sep-17 22:33N 60°01' E 026°39'1412.8
2016-Sep-17 21:26N 60°01' E 027°08'1213.4
2016-Sep-17 20:31N 60°07' E 027°29'1512.1
2016-Sep-17 19:16N 60°10' E 027°59'27 4.7
2016-Sep-17 13:31N 59°47' E 028°24'0 0.0
2016-Sep-17 12:31N 59°47' E 028°24'0 0.0
2016-Sep-17 10:25N 59°47' E 028°24'0 0.0
2016-Sep-17 09:25N 59°47' E 028°24'0 0.0
2016-Sep-17 08:25N 59°47' E 028°24'0 0.0
2016-Sep-17 07:28N 59°47' E 028°24'0 0.0
2016-Sep-17 05:28N 59°47' E 028°24'0 0.0
2016-Sep-17 04:31N 59°47' E 028°24'0 0.0
2016-Sep-17 00:31N 59°47' E 028°24'0 0.0
2016-Sep-16 17:28N 59°47' E 028°24'0 0.0
2016-Sep-16 15:28N 59°47' E 028°24'0 0.0
2016-Sep-16 12:31N 59°46' E 028°24'2 0.6
2016-Sep-16 09:33N 59°45' E 028°25'4 2.0
2016-Sep-16 07:27N 59°41' E 028°23'0 0.0
2016-Sep-16 03:30N 59°41' E 028°23'0 0.0
2016-Sep-16 02:33N 59°41' E 028°23'0 0.0
2016-Sep-16 00:33N 59°41' E 028°23'0 0.0
2016-Sep-15 22:33N 59°41' E 028°23'0 0.0
2016-Sep-15 21:33N 59°41' E 028°23'0 0.0
2016-Sep-15 20:33N 59°41' E 028°23'0 0.0
2016-Sep-15 18:27N 59°41' E 028°23'0 0.0
2016-Sep-15 12:33N 59°41' E 028°23'0 0.0
2016-Sep-15 11:18N 59°41' E 028°23'0 0.0
2016-Sep-15 04:27N 59°41' E 028°23'0 0.0
2016-Sep-15 03:27N 59°41' E 028°23'0 0.0
2016-Sep-15 01:30N 59°41' E 028°23'0 0.0
2016-Sep-14 22:33N 59°41' E 028°23'0 0.0
2016-Sep-14 21:33N 59°41' E 028°23'0 0.0
2016-Sep-14 17:33N 59°41' E 028°23'0 0.0
2016-Sep-14 16:33N 59°41' E 028°23'2 0.5
2016-Sep-14 13:33N 59°42' E 028°24'10 9.8
2016-Sep-14 12:33N 59°52' E 028°27'12 6.2
2016-Sep-14 10:33N 60°04' E 028°23'1010.3
2016-Sep-14 09:33N 60°09' E 028°05'1211.9
2016-Sep-14 08:33N 60°09' E 027°41'1111.1
2016-Sep-14 07:33N 60°03' E 027°22'1211.7
2016-Sep-14 06:31N 59°58' E 027°00'10212.8
2016-Sep-13 22:33N 59°36' E 023°42'2613.1
2016-Sep-13 20:33N 59°28' E 022°53'2613.0
2016-Sep-13 18:33N 59°15' E 022°09'1413.2
2016-Sep-13 17:31N 59°06' E 021°48'1313.2
2016-Sep-13 16:33N 58°56' E 021°34'  
Track history (hours):
 
Tides and Currents Weather Stations Pressure Air Temp Water Temp Dewpoint Dewpoint Depression Visibility Wind Speed Wind Dir Waves Ship Positions

Fantasia

Last reported at 2016-Sep-23 15:18 UTC. Time now 2016-Sep-26 10:29 UTC.
Position N 49°01' W 005°45'.

Length 183 m; draft 9.7 m.

Type: Ship (hazmat cat B). MMSI: 247279600.

Date/timePositionNaut miles runAvg speedWind from/ knotsBaromVisibWave heightAir tempDewpointWater temp
2016-Sep-23 15:18N 49°01' W 005°45'10912.5
2016-Sep-23 06:33N 49°58' W 003°21'2914.4
2016-Sep-23 04:34N 50°03' W 002°37'9411.7
2016-Sep-22 20:33N 50°28' W 000°16'9912.4
2016-Sep-22 12:33N 51°23' E 001°55'18012.6
2016-Sep-21 22:19N 53°49' E 004°48'3612.6
2016-Sep-21 19:30N 54°22' E 005°10'28010.8
2016-Sep-20 17:33N 57°38' E 011°07'3411.2
2016-Sep-20 14:33N 57°09' E 011°39'1313.2
2016-Sep-20 13:33N 56°56' E 011°47'5410.6
2016-Sep-20 08:31N 56°08' E 011°06'6811.4
2016-Sep-20 02:33N 54°60' E 011°01'30 9.9
2016-Sep-19 23:33N 54°33' E 011°23'4010.1
2016-Sep-19 19:33N 54°42' E 012°31'1412.8
2016-Sep-19 18:26N 54°49' E 012°53'2513.0
2016-Sep-19 16:33N 54°58' E 013°33'2512.5
2016-Sep-19 14:33N 55°09' E 014°11'1312.8
2016-Sep-19 13:33N 55°19' E 014°25'1312.8
2016-Sep-19 12:33N 55°28' E 014°41'1313.0
2016-Sep-19 11:33N 55°35' E 015°01'2713.0
2016-Sep-19 09:30N 55°43' E 015°46'2613.4
2016-Sep-19 07:33N 55°49' E 016°31'41012.4
2016-Sep-17 22:33N 60°01' E 026°39'1412.8
2016-Sep-17 21:26N 60°01' E 027°08'1213.4
2016-Sep-17 20:31N 60°07' E 027°29'1512.1
2016-Sep-17 19:16N 60°10' E 027°59'27 4.7
2016-Sep-17 13:31N 59°47' E 028°24'0 0.0
2016-Sep-17 12:31N 59°47' E 028°24'0 0.0
2016-Sep-17 10:25N 59°47' E 028°24'0 0.0
2016-Sep-17 09:25N 59°47' E 028°24'0 0.0
2016-Sep-17 08:25N 59°47' E 028°24'0 0.0
2016-Sep-17 07:28N 59°47' E 028°24'0 0.0
2016-Sep-17 05:28N 59°47' E 028°24'0 0.0
2016-Sep-17 04:31N 59°47' E 028°24'0 0.0
2016-Sep-17 00:31N 59°47' E 028°24'0 0.0
2016-Sep-16 17:28N 59°47' E 028°24'0 0.0
2016-Sep-16 15:28N 59°47' E 028°24'0 0.0
2016-Sep-16 12:31N 59°46' E 028°24'2 0.6
2016-Sep-16 09:33N 59°45' E 028°25'4 2.0
2016-Sep-16 07:27N 59°41' E 028°23'0 0.0
2016-Sep-16 03:30N 59°41' E 028°23'0 0.0
2016-Sep-16 02:33N 59°41' E 028°23'0 0.0
2016-Sep-16 00:33N 59°41' E 028°23'0 0.0
2016-Sep-15 22:33N 59°41' E 028°23'0 0.0
2016-Sep-15 21:33N 59°41' E 028°23'0 0.0
2016-Sep-15 20:33N 59°41' E 028°23'0 0.0
2016-Sep-15 18:27N 59°41' E 028°23'0 0.0
2016-Sep-15 12:33N 59°41' E 028°23'0 0.0
2016-Sep-15 11:18N 59°41' E 028°23'0 0.0
2016-Sep-15 04:27N 59°41' E 028°23'0 0.0
2016-Sep-15 03:27N 59°41' E 028°23'0 0.0
2016-Sep-15 01:30N 59°41' E 028°23'0 0.0
2016-Sep-14 22:33N 59°41' E 028°23'0 0.0
2016-Sep-14 21:33N 59°41' E 028°23'0 0.0
2016-Sep-14 17:33N 59°41' E 028°23'0 0.0
2016-Sep-14 16:33N 59°41' E 028°23'2 0.5
2016-Sep-14 13:33N 59°42' E 028°24'10 9.8
2016-Sep-14 12:33N 59°52' E 028°27'12 6.2
2016-Sep-14 10:33N 60°04' E 028°23'1010.3
2016-Sep-14 09:33N 60°09' E 028°05'1211.9
2016-Sep-14 08:33N 60°09' E 027°41'1111.1
2016-Sep-14 07:33N 60°03' E 027°22'1211.7
2016-Sep-14 06:31N 59°58' E 027°00'10212.8
2016-Sep-13 22:33N 59°36' E 023°42'2613.1
2016-Sep-13 20:33N 59°28' E 022°53'2613.0
2016-Sep-13 18:33N 59°15' E 022°09'1413.2
2016-Sep-13 17:31N 59°06' E 021°48'1313.2
2016-Sep-13 16:33N 58°56' E 021°34'  

Dump ship's entire track history